sensor_id;sensor_type;location;lat;lon;timestamp;pressure;altitude;pressure_sealevel;temperature;humidity
43364;BME280;40636;52.424;-1.948;2022-11-14T00:01:14;99594.19;;;10.55;100.00
43364;BME280;40636;52.424;-1.948;2022-11-14T00:03:43;99593.38;;;10.54;100.00
43364;BME280;40636;52.424;-1.948;2022-11-14T00:06:10;99588.41;;;10.51;100.00
43364;BME280;40636;52.424;-1.948;2022-11-14T00:08:37;99591.13;;;10.51;100.00
43364;BME280;40636;52.424;-1.948;2022-11-14T00:11:04;99589.22;;;10.52;100.00
43364;BME280;40636;52.424;-1.948;2022-11-14T00:13:31;99584.81;;;10.51;100.00
43364;BME280;40636;52.424;-1.948;2022-11-14T00:15:58;99573.03;;;10.50;100.00
43364;BME280;40636;52.424;-1.948;2022-11-14T00:18:24;99573.84;;;10.51;100.00
43364;BME280;40636;52.424;-1.948;2022-11-14T00:20:52;99562.28;;;10.49;100.00
43364;BME280;40636;52.424;-1.948;2022-11-14T00:23:20;99554.34;;;10.47;100.00
43364;BME280;40636;52.424;-1.948;2022-11-14T00:25:48;99555.44;;;10.46;100.00
43364;BME280;40636;52.424;-1.948;2022-11-14T00:28:15;99551.84;;;10.46;100.00
43364;BME280;40636;52.424;-1.948;2022-11-14T00:30:48;99558.16;;;10.46;100.00
43364;BME280;40636;52.424;-1.948;2022-11-14T00:33:18;99554.34;;;10.47;100.00
43364;BME280;40636;52.424;-1.948;2022-11-14T00:35:53;99549.34;;;10.44;100.00
43364;BME280;40636;52.424;-1.948;2022-11-14T00:38:20;99552.09;;;10.44;100.00
43364;BME280;40636;52.424;-1.948;2022-11-14T00:40:47;99545.56;;;10.45;100.00
43364;BME280;40636;52.424;-1.948;2022-11-14T00:43:14;99541.72;;;10.46;100.00
43364;BME280;40636;52.424;-1.948;2022-11-14T00:45:44;99536.22;;;10.46;100.00
43364;BME280;40636;52.424;-1.948;2022-11-14T00:48:12;99536.22;;;10.46;100.00
43364;BME280;40636;52.424;-1.948;2022-11-14T00:50:39;99529.09;;;10.45;100.00
43364;BME280;40636;52.424;-1.948;2022-11-14T00:53:06;99532.63;;;10.40;100.00
43364;BME280;40636;52.424;-1.948;2022-11-14T00:55:33;99531.53;;;10.41;100.00
43364;BME280;40636;52.424;-1.948;2022-11-14T00:58:00;99525.16;;;10.36;100.00
43364;BME280;40636;52.424;-1.948;2022-11-14T01:00:27;99529.56;;;10.37;100.00
43364;BME280;40636;52.424;-1.948;2022-11-14T01:02:53;99529.56;;;10.37;100.00
43364;BME280;40636;52.424;-1.948;2022-11-14T01:05:24;99542.72;;;10.40;100.00
43364;BME280;40636;52.424;-1.948;2022-11-14T01:07:51;99541.66;;;10.41;100.00
43364;BME280;40636;52.424;-1.948;2022-11-14T01:10:18;99537.78;;;10.37;100.00
43364;BME280;40636;52.424;-1.948;2022-11-14T01:12:45;99530.66;;;10.36;100.00
43364;BME280;40636;52.424;-1.948;2022-11-14T01:15:12;99521.84;;;10.34;100.00
43364;BME280;40636;52.424;-1.948;2022-11-14T01:17:38;99522.09;;;10.32;100.00
43364;BME280;40636;52.424;-1.948;2022-11-14T01:20:06;99518.78;;;10.30;100.00
43364;BME280;40636;52.424;-1.948;2022-11-14T01:22:33;99508.63;;;10.31;100.00
43364;BME280;40636;52.424;-1.948;2022-11-14T01:25:00;99502.59;;;10.29;100.00
43364;BME280;40636;52.424;-1.948;2022-11-14T01:27:29;99509.69;;;10.25;100.00
43364;BME280;40636;52.424;-1.948;2022-11-14T01:29:56;99503.94;;;10.26;100.00
43364;BME280;40636;52.424;-1.948;2022-11-14T01:32:24;99505.25;;;10.24;100.00
43364;BME280;40636;52.424;-1.948;2022-11-14T01:34:51;99504.66;;;10.22;100.00
43364;BME280;40636;52.424;-1.948;2022-11-14T01:37:18;99486.56;;;10.21;100.00
43364;BME280;40636;52.424;-1.948;2022-11-14T01:39:45;99485.25;;;10.23;100.00
43364;BME280;40636;52.424;-1.948;2022-11-14T01:42:12;99481.66;;;10.23;100.00
43364;BME280;40636;52.424;-1.948;2022-11-14T01:44:49;99480.00;;;10.22;100.00
43364;BME280;40636;52.424;-1.948;2022-11-14T01:47:23;99474.50;;;10.22;100.00
43364;BME280;40636;52.424;-1.948;2022-11-14T01:49:57;99472.84;;;10.21;100.00
43364;BME280;40636;52.424;-1.948;2022-11-14T01:52:33;99472.03;;;10.20;100.00
43364;BME280;40636;52.424;-1.948;2022-11-14T01:55:04;99470.13;;;10.21;100.00
43364;BME280;40636;52.424;-1.948;2022-11-14T01:57:36;99465.19;;;10.18;100.00
43364;BME280;40636;52.424;-1.948;2022-11-14T02:00:07;99461.34;;;10.19;100.00
43364;BME280;40636;52.424;-1.948;2022-11-14T02:02:34;99467.91;;;10.18;100.00
43364;BME280;40636;52.424;-1.948;2022-11-14T02:05:10;99465.19;;;10.18;100.00
43364;BME280;40636;52.424;-1.948;2022-11-14T02:07:39;99467.91;;;10.18;100.00
43364;BME280;40636;52.424;-1.948;2022-11-14T02:10:09;99462.44;;;10.18;100.00
43364;BME280;40636;52.424;-1.948;2022-11-14T02:12:40;99466.25;;;10.16;100.00
43364;BME280;40636;52.424;-1.948;2022-11-14T02:15:08;99479.72;;;10.18;100.00
43364;BME280;40636;52.424;-1.948;2022-11-14T02:17:35;99463.00;;;10.20;100.00
43364;BME280;40636;52.424;-1.948;2022-11-14T02:22:31;99461.34;;;10.19;100.00
43364;BME280;40636;52.424;-1.948;2022-11-14T02:24:58;99461.06;;;10.20;100.00
43364;BME280;40636;52.424;-1.948;2022-11-14T02:27:25;99463.00;;;10.20;100.00
43364;BME280;40636;52.424;-1.948;2022-11-14T02:29:52;99464.41;;;10.22;100.00
43364;BME280;40636;52.424;-1.948;2022-11-14T02:32:19;99454.56;;;10.26;100.00
43364;BME280;40636;52.424;-1.948;2022-11-14T02:34:45;99453.50;;;10.27;100.00
43364;BME280;40636;52.424;-1.948;2022-11-14T02:37:12;99449.81;;;10.22;100.00
43364;BME280;40636;52.424;-1.948;2022-11-14T02:39:39;99452.56;;;10.22;100.00
43364;BME280;40636;52.424;-1.948;2022-11-14T02:42:06;99452.00;;;10.20;100.00
43364;BME280;40636;52.424;-1.948;2022-11-14T02:44:33;99445.97;;;10.18;100.00
43364;BME280;40636;52.424;-1.948;2022-11-14T02:46:59;99438.81;;;10.16;100.00
43364;BME280;40636;52.424;-1.948;2022-11-14T02:49:26;99435.00;;;10.18;100.00
43364;BME280;40636;52.424;-1.948;2022-11-14T02:51:53;99427.03;;;10.16;100.00
43364;BME280;40636;52.424;-1.948;2022-11-14T02:54:19;99422.38;;;10.16;100.00
43364;BME280;40636;52.424;-1.948;2022-11-14T02:56:46;99428.44;;;10.19;100.00
43364;BME280;40636;52.424;-1.948;2022-11-14T02:59:13;99425.69;;;10.19;100.00
43364;BME280;40636;52.424;-1.948;2022-11-14T03:01:39;99410.88;;;10.20;100.00
43364;BME280;40636;52.424;-1.948;2022-11-14T03:04:06;99411.16;;;10.18;100.00
43364;BME280;40636;52.424;-1.948;2022-11-14T03:06:33;99402.94;;;10.18;100.00
43364;BME280;40636;52.424;-1.948;2022-11-14T03:09:00;99395.78;;;10.17;100.00
43364;BME280;40636;52.424;-1.948;2022-11-14T03:11:26;99387.31;;;10.19;100.00
43364;BME280;40636;52.424;-1.948;2022-11-14T03:13:53;99390.03;;;10.19;100.00
43364;BME280;40636;52.424;-1.948;2022-11-14T03:16:20;99391.38;;;10.16;100.00
43364;BME280;40636;52.424;-1.948;2022-11-14T03:18:47;99386.72;;;10.16;100.00
43364;BME280;40636;52.424;-1.948;2022-11-14T03:21:20;99389.78;;;10.20;100.00
43364;BME280;40636;52.424;-1.948;2022-11-14T03:23:47;99398.81;;;10.21;100.00
43364;BME280;40636;52.424;-1.948;2022-11-14T03:26:14;99395.84;;;10.22;100.00
43364;BME280;40636;52.424;-1.948;2022-11-14T03:28:43;99400.00;;;10.25;100.00
43364;BME280;40636;52.424;-1.948;2022-11-14T03:31:12;99403.88;;;10.29;100.00
43364;BME280;40636;52.424;-1.948;2022-11-14T03:33:40;99402.78;;;10.30;100.00
43364;BME280;40636;52.424;-1.948;2022-11-14T03:36:07;99401.16;;;10.34;100.00
43364;BME280;40636;52.424;-1.948;2022-11-14T03:38:34;99398.16;;;10.35;100.00
43364;BME280;40636;52.424;-1.948;2022-11-14T03:41:00;99398.16;;;10.35;100.00
43364;BME280;40636;52.424;-1.948;2022-11-14T03:43:32;99398.41;;;10.34;100.00
43364;BME280;40636;52.424;-1.948;2022-11-14T03:46:00;99395.66;;;10.34;100.00
43364;BME280;40636;52.424;-1.948;2022-11-14T03:48:28;99400.06;;;10.35;100.00
43364;BME280;40636;52.424;-1.948;2022-11-14T03:50:56;99392.66;;;10.35;100.00
43364;BME280;40636;52.424;-1.948;2022-11-14T03:53:23;99395.19;;;10.42;100.00
43364;BME280;40636;52.424;-1.948;2022-11-14T03:55:50;99380.13;;;10.45;100.00
43364;BME280;40636;52.424;-1.948;2022-11-14T03:58:17;99380.38;;;10.43;100.00
43364;BME280;40636;52.424;-1.948;2022-11-14T04:00:44;99377.91;;;10.41;100.00
43364;BME280;40636;52.424;-1.948;2022-11-14T04:03:12;99379.00;;;10.40;100.00
43364;BME280;40636;52.424;-1.948;2022-11-14T04:05:38;99373.75;;;10.39;100.00
43364;BME280;40636;52.424;-1.948;2022-11-14T04:08:06;99369.41;;;10.43;100.00
43364;BME280;40636;52.424;-1.948;2022-11-14T04:10:33;99378.16;;;10.40;100.00
43364;BME280;40636;52.424;-1.948;2022-11-14T04:12:59;99378.72;;;10.42;100.00
43364;BME280;40636;52.424;-1.948;2022-11-14T04:15:26;99371.31;;;10.43;100.00
43364;BME280;40636;52.424;-1.948;2022-11-14T04:17:53;99373.25;;;10.42;100.00
43364;BME280;40636;52.424;-1.948;2022-11-14T04:20:20;99367.75;;;10.42;100.00
43364;BME280;40636;52.424;-1.948;2022-11-14T04:22:47;99368.84;;;10.41;100.00
43364;BME280;40636;52.424;-1.948;2022-11-14T04:25:14;99359.25;;;10.44;100.00
43364;BME280;40636;52.424;-1.948;2022-11-14T04:27:42;99361.19;;;10.43;100.00
43364;BME280;40636;52.424;-1.948;2022-11-14T04:30:09;99357.88;;;10.41;100.00
43364;BME280;40636;52.424;-1.948;2022-11-14T04:32:36;99360.94;;;10.45;100.00
43364;BME280;40636;52.424;-1.948;2022-11-14T04:35:03;99355.69;;;10.43;100.00
43364;BME280;40636;52.424;-1.948;2022-11-14T04:37:30;99356.78;;;10.42;100.00
43364;BME280;40636;52.424;-1.948;2022-11-14T04:39:56;99346.63;;;10.43;100.00
43364;BME280;40636;52.424;-1.948;2022-11-14T04:42:26;99351.84;;;10.44;100.00
43364;BME280;40636;52.424;-1.948;2022-11-14T04:44:53;99352.72;;;10.45;100.00
43364;BME280;40636;52.424;-1.948;2022-11-14T04:47:19;99359.53;;;10.42;100.00
43364;BME280;40636;52.424;-1.948;2022-11-14T04:49:47;99352.41;;;10.41;100.00
43364;BME280;40636;52.424;-1.948;2022-11-14T04:52:14;99356.22;;;10.40;100.00
43364;BME280;40636;52.424;-1.948;2022-11-14T04:54:41;99350.72;;;10.40;100.00
43364;BME280;40636;52.424;-1.948;2022-11-14T04:57:08;99355.38;;;10.39;100.00
43364;BME280;40636;52.424;-1.948;2022-11-14T04:59:34;99352.41;;;10.41;100.00
43364;BME280;40636;52.424;-1.948;2022-11-14T05:02:01;99332.63;;;10.39;100.00
43364;BME280;40636;52.424;-1.948;2022-11-14T05:04:28;99331.53;;;10.40;100.00
43364;BME280;40636;52.424;-1.948;2022-11-14T05:06:54;99337.88;;;10.40;100.00
43364;BME280;40636;52.424;-1.948;2022-11-14T05:09:21;99334.25;;;10.40;100.00
43364;BME280;40636;52.424;-1.948;2022-11-14T05:11:48;99333.19;;;10.36;100.00
43364;BME280;40636;52.424;-1.948;2022-11-14T05:14:14;99328.22;;;10.33;100.00
43364;BME280;40636;52.424;-1.948;2022-11-14T05:16:41;99322.41;;;10.29;100.00
43364;BME280;40636;52.424;-1.948;2022-11-14T05:19:08;99330.91;;;10.28;100.00
43364;BME280;40636;52.424;-1.948;2022-11-14T05:21:35;99324.84;;;10.26;100.00
43364;BME280;40636;52.424;-1.948;2022-11-14T05:24:03;99319.94;;;10.28;100.00
43364;BME280;40636;52.424;-1.948;2022-11-14T05:26:30;99322.94;;;10.26;100.00
43364;BME280;40636;52.424;-1.948;2022-11-14T05:28:56;99310.06;;;10.27;100.00
43364;BME280;40636;52.424;-1.948;2022-11-14T05:31:23;99305.97;;;10.29;100.00
43364;BME280;40636;52.424;-1.948;2022-11-14T05:33:50;99302.41;;;10.29;100.00
43364;BME280;40636;52.424;-1.948;2022-11-14T05:36:18;99316.09;;;10.29;100.00
43364;BME280;40636;52.424;-1.948;2022-11-14T05:38:45;99310.63;;;10.29;100.00
43364;BME280;40636;52.424;-1.948;2022-11-14T05:41:15;99291.16;;;10.30;100.00
43364;BME280;40636;52.424;-1.948;2022-11-14T05:43:42;99291.16;;;10.30;100.00
43364;BME280;40636;52.424;-1.948;2022-11-14T05:46:11;99296.41;;;10.32;100.00
43364;BME280;40636;52.424;-1.948;2022-11-14T05:48:38;99289.81;;;10.33;100.00
43364;BME280;40636;52.424;-1.948;2022-11-14T05:51:06;99285.44;;;10.32;100.00
43364;BME280;40636;52.424;-1.948;2022-11-14T05:53:37;99288.41;;;10.30;100.00
43364;BME280;40636;52.424;-1.948;2022-11-14T05:56:06;99281.00;;;10.31;100.00
43364;BME280;40636;52.424;-1.948;2022-11-14T05:58:35;99272.22;;;10.29;100.00
43364;BME280;40636;52.424;-1.948;2022-11-14T06:01:04;99279.38;;;10.30;100.00
43364;BME280;40636;52.424;-1.948;2022-11-14T06:03:37;99278.03;;;10.32;100.00
43364;BME280;40636;52.424;-1.948;2022-11-14T06:06:07;99276.91;;;10.33;100.00
43364;BME280;40636;52.424;-1.948;2022-11-14T06:08:35;99267.06;;;10.32;100.00
43364;BME280;40636;52.424;-1.948;2022-11-14T06:11:06;99271.13;;;10.30;100.00
43364;BME280;40636;52.424;-1.948;2022-11-14T06:13:34;99280.19;;;10.30;100.00
43364;BME280;40636;52.424;-1.948;2022-11-14T06:16:06;99283.19;;;10.29;100.00
43364;BME280;40636;52.424;-1.948;2022-11-14T06:18:35;99291.97;;;10.31;100.00
43364;BME280;40636;52.424;-1.948;2022-11-14T06:21:14;99291.47;;;10.34;100.00
43364;BME280;40636;52.424;-1.948;2022-11-14T06:23:41;99302.13;;;10.30;100.00
43364;BME280;40636;52.424;-1.948;2022-11-14T06:26:34;99306.25;;;10.28;100.00
43364;BME280;40636;52.424;-1.948;2022-11-14T06:29:01;99305.94;;;10.24;100.00
43364;BME280;40636;52.424;-1.948;2022-11-14T06:31:28;99301.50;;;10.23;100.00
43364;BME280;40636;52.424;-1.948;2022-11-14T06:33:54;99294.09;;;10.24;100.00
43364;BME280;40636;52.424;-1.948;2022-11-14T06:36:22;99305.06;;;10.19;100.00
43364;BME280;40636;52.424;-1.948;2022-11-14T06:38:49;99316.25;;;10.17;100.00
43364;BME280;40636;52.424;-1.948;2022-11-14T06:41:19;99324.78;;;10.21;100.00
43364;BME280;40636;52.424;-1.948;2022-11-14T06:43:49;99317.94;;;10.18;100.00
43364;BME280;40636;52.424;-1.948;2022-11-14T06:46:19;99316.53;;;10.15;100.00
43364;BME280;40636;52.424;-1.948;2022-11-14T06:48:47;99313.50;;;10.17;100.00
43364;BME280;40636;52.424;-1.948;2022-11-14T06:51:15;99297.31;;;10.10;100.00
43364;BME280;40636;52.424;-1.948;2022-11-14T06:53:42;99301.38;;;10.08;100.00
43364;BME280;40636;52.424;-1.948;2022-11-14T06:56:17;99298.94;;;10.11;100.00
43364;BME280;40636;52.424;-1.948;2022-11-14T06:58:47;99298.72;;;10.13;100.00
43364;BME280;40636;52.424;-1.948;2022-11-14T07:01:18;99298.44;;;10.14;100.00
43364;BME280;40636;52.424;-1.948;2022-11-14T07:03:46;99299.25;;;10.15;100.00
43364;BME280;40636;52.424;-1.948;2022-11-14T07:06:17;99291.00;;;10.10;100.00
43364;BME280;40636;52.424;-1.948;2022-11-14T07:08:44;99295.88;;;10.03;100.00
43364;BME280;40636;52.424;-1.948;2022-11-14T07:11:19;99299.16;;;10.00;100.00
43364;BME280;40636;52.424;-1.948;2022-11-14T07:13:57;99286.78;;;9.97;100.00
43364;BME280;40636;52.424;-1.948;2022-11-14T07:16:30;99296.94;;;9.97;100.00
43364;BME280;40636;52.424;-1.948;2022-11-14T07:18:58;99281.31;;;9.97;100.00
43364;BME280;40636;52.424;-1.948;2022-11-14T07:21:26;99284.31;;;9.96;100.00
43364;BME280;40636;52.424;-1.948;2022-11-14T07:23:53;99287.06;;;9.96;100.00
43364;BME280;40636;52.424;-1.948;2022-11-14T07:26:20;99285.72;;;10.03;100.00
43364;BME280;40636;52.424;-1.948;2022-11-14T07:28:47;99291.75;;;10.00;100.00
43364;BME280;40636;52.424;-1.948;2022-11-14T07:31:19;99286.00;;;10.02;100.00
43364;BME280;40636;52.424;-1.948;2022-11-14T07:33:46;99285.69;;;9.98;100.00
43364;BME280;40636;52.424;-1.948;2022-11-14T07:36:14;99286.00;;;10.02;100.00
43364;BME280;40636;52.424;-1.948;2022-11-14T07:38:41;99290.38;;;10.03;100.00
43364;BME280;40636;52.424;-1.948;2022-11-14T07:41:12;99298.66;;;10.08;100.00
43364;BME280;40636;52.424;-1.948;2022-11-14T07:43:40;99293.47;;;10.11;100.00
43364;BME280;40636;52.424;-1.948;2022-11-14T07:46:16;99292.63;;;10.06;100.00
43364;BME280;40636;52.424;-1.948;2022-11-14T07:48:44;99290.69;;;10.06;100.00
43364;BME280;40636;52.424;-1.948;2022-11-14T07:51:18;99277.56;;;10.08;100.00
43364;BME280;40636;52.424;-1.948;2022-11-14T07:53:45;99275.06;;;10.07;100.00
43364;BME280;40636;52.424;-1.948;2022-11-14T07:56:12;99284.16;;;10.12;100.00
43364;BME280;40636;52.424;-1.948;2022-11-14T07:58:40;99278.66;;;10.12;100.00
43364;BME280;40636;52.424;-1.948;2022-11-14T08:01:09;99273.19;;;10.12;100.00
43364;BME280;40636;52.424;-1.948;2022-11-14T08:03:36;99283.09;;;10.13;100.00
43364;BME280;40636;52.424;-1.948;2022-11-14T08:06:12;99271.28;;;10.13;100.00
43364;BME280;40636;52.424;-1.948;2022-11-14T08:08:40;99269.38;;;10.13;100.00
43364;BME280;40636;52.424;-1.948;2022-11-14T08:11:06;99264.97;;;10.12;100.00
43364;BME280;40636;52.424;-1.948;2022-11-14T08:13:33;99260.56;;;10.11;100.00
43364;BME280;40636;52.424;-1.948;2022-11-14T08:16:07;99254.28;;;10.11;100.00
43364;BME280;40636;52.424;-1.948;2022-11-14T08:18:40;99252.91;;;10.08;100.00
43364;BME280;40636;52.424;-1.948;2022-11-14T08:21:07;99247.41;;;10.08;100.00
43364;BME280;40636;52.424;-1.948;2022-11-14T08:23:34;99250.16;;;10.08;100.00
43364;BME280;40636;52.424;-1.948;2022-11-14T08:26:02;99252.31;;;10.06;100.00
43364;BME280;40636;52.424;-1.948;2022-11-14T08:28:28;99261.66;;;10.10;100.00
43364;BME280;40636;52.424;-1.948;2022-11-14T08:31:00;99256.72;;;10.12;100.00
43364;BME280;40636;52.424;-1.948;2022-11-14T08:33:28;99240.88;;;10.20;100.00
43364;BME280;40636;52.424;-1.948;2022-11-14T08:36:03;99239.53;;;10.22;100.00
43364;BME280;40636;52.424;-1.948;2022-11-14T08:38:30;99241.19;;;10.23;100.00
43364;BME280;40636;52.424;-1.948;2022-11-14T08:40:59;99239.28;;;10.24;100.00
43364;BME280;40636;52.424;-1.948;2022-11-14T08:43:26;99239.03;;;10.25;100.00
43364;BME280;40636;52.424;-1.948;2022-11-14T08:46:03;99238.78;;;10.27;100.00
43364;BME280;40636;52.424;-1.948;2022-11-14T08:48:48;99236.28;;;10.25;100.00
43364;BME280;40636;52.424;-1.948;2022-11-14T08:51:15;99239.03;;;10.25;100.00
43364;BME280;40636;52.424;-1.948;2022-11-14T08:53:42;99240.97;;;10.30;100.00
43364;BME280;40636;52.424;-1.948;2022-11-14T08:56:09;99234.38;;;10.31;100.00
43364;BME280;40636;52.424;-1.948;2022-11-14T08:58:36;99233.31;;;10.32;100.00
43364;BME280;40636;52.424;-1.948;2022-11-14T09:01:05;99227.84;;;10.37;100.00
43364;BME280;40636;52.424;-1.948;2022-11-14T09:03:38;99235.00;;;10.43;100.00
43364;BME280;40636;52.424;-1.948;2022-11-14T09:06:13;99225.97;;;10.48;100.00
43364;BME280;40636;52.424;-1.948;2022-11-14T09:08:41;99230.91;;;10.46;100.00
43364;BME280;40636;52.424;-1.948;2022-11-14T09:11:08;99235.59;;;10.50;100.00
43364;BME280;40636;52.424;-1.948;2022-11-14T09:13:36;99225.75;;;10.54;100.00
43364;BME280;40636;52.424;-1.948;2022-11-14T09:16:49;99217.22;;;10.56;100.00
43364;BME280;40636;52.424;-1.948;2022-11-14T09:19:19;99221.63;;;10.62;100.00
43364;BME280;40636;52.424;-1.948;2022-11-14T09:21:46;99221.94;;;10.65;100.00
43364;BME280;40636;52.424;-1.948;2022-11-14T09:24:13;99209.88;;;10.72;100.00
43364;BME280;40636;52.424;-1.948;2022-11-14T09:26:39;99204.69;;;10.80;100.00
43364;BME280;40636;52.424;-1.948;2022-11-14T09:29:07;99199.47;;;10.79;100.00
43364;BME280;40636;52.424;-1.948;2022-11-14T09:31:34;99202.50;;;10.77;100.00
43364;BME280;40636;52.424;-1.948;2022-11-14T09:34:01;99195.63;;;10.80;100.00
43364;BME280;40636;52.424;-1.948;2022-11-14T09:36:28;99190.16;;;10.85;100.00
43364;BME280;40636;52.424;-1.948;2022-11-14T09:38:54;99191.25;;;10.89;100.00
43364;BME280;40636;52.424;-1.948;2022-11-14T09:46:25;99199.50;;;10.94;100.00
43364;BME280;40636;52.424;-1.948;2022-11-14T09:48:53;99198.44;;;10.95;100.00
43364;BME280;40636;52.424;-1.948;2022-11-14T09:51:32;99203.09;;;10.95;100.00
43364;BME280;40636;52.424;-1.948;2022-11-14T09:56:47;99198.72;;;11.09;100.00
43364;BME280;40636;52.424;-1.948;2022-11-14T09:59:14;99198.16;;;11.12;100.00
43364;BME280;40636;52.424;-1.948;2022-11-14T10:07:14;99187.47;;;11.26;100.00
43364;BME280;40636;52.424;-1.948;2022-11-14T10:09:56;99175.66;;;11.30;100.00
43364;BME280;40636;52.424;-1.948;2022-11-14T10:12:39;99182.53;;;11.33;100.00
43364;BME280;40636;52.424;-1.948;2022-11-14T10:15:25;99179.25;;;11.36;100.00
43364;BME280;40636;52.424;-1.948;2022-11-14T10:26:25;99195.72;;;11.41;100.00
43364;BME280;40636;52.424;-1.948;2022-11-14T10:37:40;99189.66;;;11.34;100.00
43364;BME280;40636;52.424;-1.948;2022-11-14T10:40:19;99190.78;;;11.28;100.00
43364;BME280;40636;52.424;-1.948;2022-11-14T10:42:51;99185.81;;;11.30;100.00
43364;BME280;40636;52.424;-1.948;2022-11-14T10:48:00;99178.16;;;11.27;100.00
43364;BME280;40636;52.424;-1.948;2022-11-14T10:50:39;99172.38;;;11.28;100.00
43364;BME280;40636;52.424;-1.948;2022-11-14T10:55:58;99173.72;;;11.26;100.00
43364;BME280;40636;52.424;-1.948;2022-11-14T10:58:30;99175.13;;;11.28;100.00
43364;BME280;40636;52.424;-1.948;2022-11-14T11:04:11;99177.56;;;11.30;100.00
43364;BME280;40636;52.424;-1.948;2022-11-14T11:06:39;99172.66;;;11.32;100.00
43364;BME280;40636;52.424;-1.948;2022-11-14T11:09:13;99166.88;;;11.33;100.00
43364;BME280;40636;52.424;-1.948;2022-11-14T11:12:01;99171.00;;;11.36;100.00
43364;BME280;40636;52.424;-1.948;2022-11-14T11:14:29;99163.31;;;11.38;100.00
43364;BME280;40636;52.424;-1.948;2022-11-14T11:17:19;99161.66;;;11.42;100.00
43364;BME280;40636;52.424;-1.948;2022-11-14T11:20:22;99157.25;;;11.41;100.00
43364;BME280;40636;52.424;-1.948;2022-11-14T11:23:01;99156.97;;;11.48;100.00
43364;BME280;40636;52.424;-1.948;2022-11-14T11:26:05;99148.72;;;11.53;100.00
43364;BME280;40636;52.424;-1.948;2022-11-14T11:28:35;99151.47;;;11.53;100.00
43364;BME280;40636;52.424;-1.948;2022-11-14T11:31:07;99143.50;;;11.51;100.00
43364;BME280;40636;52.424;-1.948;2022-11-14T11:33:36;99142.97;;;11.54;100.00
43364;BME280;40636;52.424;-1.948;2022-11-14T11:36:14;99138.56;;;11.58;100.00
43364;BME280;40636;52.424;-1.948;2022-11-14T11:38:44;99142.97;;;11.59;100.00
43364;BME280;40636;52.424;-1.948;2022-11-14T11:41:23;99142.97;;;11.59;100.00
43364;BME280;40636;52.424;-1.948;2022-11-14T11:44:14;99134.13;;;11.62;100.00
43364;BME280;40636;52.424;-1.948;2022-11-14T11:46:51;99126.47;;;11.64;100.00
43364;BME280;40636;52.424;-1.948;2022-11-14T11:49:45;99116.28;;;11.70;100.00
43364;BME280;40636;52.424;-1.948;2022-11-14T11:58:52;99102.25;;;11.72;100.00
43364;BME280;40636;52.424;-1.948;2022-11-14T12:01:23;99099.50;;;11.72;100.00
43364;BME280;40636;52.424;-1.948;2022-11-14T12:08:11;99097.28;;;11.89;100.00
43364;BME280;40636;52.424;-1.948;2022-11-14T12:13:47;99087.03;;;12.10;100.00
43364;BME280;40636;52.424;-1.948;2022-11-14T12:22:07;99077.94;;;12.14;100.00
43364;BME280;40636;52.424;-1.948;2022-11-14T12:30:27;99065.25;;;12.24;100.00
43364;BME280;40636;52.424;-1.948;2022-11-14T12:33:00;99071.00;;;12.27;100.00
43364;BME280;40636;52.424;-1.948;2022-11-14T12:35:35;99063.00;;;12.26;100.00
43364;BME280;40636;52.424;-1.948;2022-11-14T12:41:33;99057.72;;;12.39;100.00
43364;BME280;40636;52.424;-1.948;2022-11-14T12:44:30;99053.63;;;12.37;100.00
43364;BME280;40636;52.424;-1.948;2022-11-14T12:58:13;99051.16;;;12.35;100.00
43364;BME280;40636;52.424;-1.948;2022-11-14T13:11:41;99041.50;;;12.38;100.00
43364;BME280;40636;52.424;-1.948;2022-11-14T13:14:29;99030.19;;;12.39;100.00
43364;BME280;40636;52.424;-1.948;2022-11-14T13:20:02;99018.97;;;12.36;100.00
43364;BME280;40636;52.424;-1.948;2022-11-14T13:33:51;98995.78;;;12.42;100.00
43364;BME280;40636;52.424;-1.948;2022-11-14T13:36:42;98994.59;;;12.58;100.00
43364;BME280;40636;52.424;-1.948;2022-11-14T13:39:23;98980.78;;;12.63;100.00
43364;BME280;40636;52.424;-1.948;2022-11-14T13:50:12;98954.63;;;12.61;100.00
43364;BME280;40636;52.424;-1.948;2022-11-14T13:52:45;98959.59;;;12.64;100.00
43364;BME280;40636;52.424;-1.948;2022-11-14T13:58:34;98929.56;;;12.62;100.00
43364;BME280;40636;52.424;-1.948;2022-11-14T14:15:36;98904.81;;;12.62;100.00
43364;BME280;40636;52.424;-1.948;2022-11-14T14:18:58;98919.44;;;12.58;100.00
43364;BME280;40636;52.424;-1.948;2022-11-14T14:21:05;98917.84;;;12.52;100.00
43364;BME280;40636;52.424;-1.948;2022-11-14T14:26:22;98931.34;;;12.48;100.00
43364;BME280;40636;52.424;-1.948;2022-11-14T14:29:19;98933.03;;;12.44;100.00
43364;BME280;40636;52.424;-1.948;2022-11-14T14:31:48;98924.56;;;12.40;100.00
43364;BME280;40636;52.424;-1.948;2022-11-14T14:34:31;98929.19;;;12.45;100.00
43364;BME280;40636;52.424;-1.948;2022-11-14T14:36:59;98927.00;;;12.42;100.00
43364;BME280;40636;52.424;-1.948;2022-11-14T14:39:27;98924.25;;;12.42;100.00
43364;BME280;40636;52.424;-1.948;2022-11-14T14:41:56;98926.50;;;12.40;100.00
43364;BME280;40636;52.424;-1.948;2022-11-14T14:44:35;98920.69;;;12.41;100.00
43364;BME280;40636;52.424;-1.948;2022-11-14T14:48:00;98925.38;;;12.41;100.00
43364;BME280;40636;52.424;-1.948;2022-11-14T14:50:16;98923.44;;;12.41;100.00
43364;BME280;40636;52.424;-1.948;2022-11-14T14:52:54;98915.78;;;12.33;100.00
43364;BME280;40636;52.424;-1.948;2022-11-14T14:55:26;98909.47;;;12.33;100.00
43364;BME280;40636;52.424;-1.948;2022-11-14T14:57:54;98904.50;;;12.35;100.00
43364;BME280;40636;52.424;-1.948;2022-11-14T15:00:23;98905.00;;;12.42;100.00
43364;BME280;40636;52.424;-1.948;2022-11-14T15:02:53;98903.78;;;12.53;100.00
43364;BME280;40636;52.424;-1.948;2022-11-14T15:05:26;98894.66;;;12.58;100.00
43364;BME280;40636;52.424;-1.948;2022-11-14T15:07:56;98885.84;;;12.61;100.00
43364;BME280;40636;52.424;-1.948;2022-11-14T15:10:28;98888.06;;;12.59;100.00
43364;BME280;40636;52.424;-1.948;2022-11-14T15:12:56;98882.63;;;12.54;100.00